createdAt,value
2018-02-19T00:00:53.547Z,3.05
2018-02-19T00:02:03.268Z,2.98
2018-02-19T00:03:12.219Z,3.01
2018-02-19T00:04:22.320Z,2.99
2018-02-19T00:05:32.042Z,2.92
2018-02-19T00:06:42.040Z,2.86
2018-02-19T00:07:52.040Z,2.95
2018-02-19T00:09:01.778Z,2.9
2018-02-19T00:10:11.504Z,2.97
2018-02-19T00:11:21.500Z,2.97
2018-02-19T00:12:31.228Z,2.92
2018-02-19T00:13:40.997Z,2.97
2018-02-19T00:14:50.724Z,2.9
2018-02-19T00:16:00.448Z,2.79
2018-02-19T00:17:10.172Z,2.9
2018-02-19T00:18:19.631Z,2.84
2018-02-19T00:19:29.088Z,2.92
2018-02-19T00:20:38.813Z,2.98
2018-02-19T00:21:48.801Z,2.97
2018-02-19T00:22:58.523Z,2.94
2018-02-19T00:24:08.246Z,2.95
2018-02-19T00:25:17.978Z,2.98
2018-02-19T00:26:27.962Z,2.94
2018-02-19T00:27:37.419Z,2.89
2018-02-19T00:28:47.466Z,2.95
2018-02-19T00:29:57.191Z,2.98
2018-02-19T00:31:06.647Z,2.97
2018-02-19T00:32:16.109Z,2.98
2018-02-19T00:33:25.566Z,2.98
2018-02-19T00:34:35.312Z,2.95
2018-02-19T00:35:45.368Z,2.95
2018-02-19T00:36:55.368Z,2.97
2018-02-19T00:38:05.357Z,2.9
2018-02-19T00:39:14.829Z,2.99
2018-02-19T00:40:24.287Z,2.89
2018-02-19T00:41:33.209Z,2.95
2018-02-19T00:42:42.937Z,2.89
2018-02-19T00:43:52.930Z,2.92
2018-02-19T00:45:02.394Z,2.84
2018-02-19T00:46:11.850Z,2.94
2018-02-19T00:47:21.308Z,3.01
2018-02-19T00:48:31.032Z,2.9
2018-02-19T00:49:40.754Z,2.98
2018-02-19T00:50:50.476Z,2.86
2018-02-19T00:52:00.207Z,2.89
2018-02-19T00:53:09.666Z,2.94
2018-02-19T00:54:19.395Z,2.98
2018-02-19T00:55:28.853Z,2.94
2018-02-19T00:56:38.310Z,2.9
2018-02-19T00:57:48.364Z,2.97
2018-02-19T00:58:58.095Z,2.95
2018-02-19T01:00:07.551Z,2.99
2018-02-19T01:01:17.274Z,2.92
2018-02-19T01:02:26.728Z,2.84
2018-02-19T01:03:36.719Z,2.86
2018-02-19T01:04:46.440Z,2.83
2018-02-19T01:05:56.172Z,2.8
2018-02-19T01:07:06.173Z,2.86
2018-02-19T01:08:16.162Z,2.84
2018-02-19T01:09:26.171Z,2.77
2018-02-19T01:10:35.624Z,2.8
2018-02-19T01:11:45.346Z,2.83
2018-02-19T01:12:54.855Z,2.74
2018-02-19T01:14:04.624Z,2.74
2018-02-19T01:15:14.351Z,2.77
2018-02-19T01:16:24.340Z,2.68
2018-02-19T01:17:34.336Z,2.65
2018-02-19T01:18:44.079Z,2.69
2018-02-19T01:19:54.078Z,2.74
2018-02-19T01:21:04.076Z,2.76
2018-02-19T01:22:14.073Z,2.71
2018-02-19T01:23:24.075Z,2.62
2018-02-19T01:24:34.068Z,2.63
2018-02-19T01:25:43.813Z,2.69
2018-02-19T01:26:53.804Z,2.59
2018-02-19T01:28:03.529Z,2.59
2018-02-19T01:29:12.760Z,2.63
2018-02-19T01:30:22.215Z,2.66
2018-02-19T01:31:32.203Z,2.62
2018-02-19T01:32:41.660Z,2.59
2018-02-19T01:33:51.151Z,2.71
2018-02-19T01:35:00.873Z,2.73
2018-02-19T01:36:10.594Z,2.68
2018-02-19T01:37:20.374Z,2.73
2018-02-19T01:38:29.299Z,2.68
2018-02-19T01:39:39.292Z,2.66
2018-02-19T01:40:49.282Z,2.8
2018-02-19T01:41:59.015Z,2.71
2018-02-19T01:43:08.866Z,2.69
2018-02-19T01:44:18.665Z,2.71
2018-02-19T01:45:27.855Z,2.8
2018-02-19T01:46:37.851Z,2.74
2018-02-19T01:47:47.840Z,2.74
2018-02-19T01:48:57.868Z,2.8
2018-02-19T01:50:07.882Z,2.73
2018-02-19T01:51:17.603Z,2.65
2018-02-19T01:52:27.325Z,2.74
2018-02-19T01:53:37.045Z,2.76
2018-02-19T01:54:46.774Z,2.76
2018-02-19T01:55:56.506Z,2.8
2018-02-19T01:57:06.532Z,2.77
2018-02-19T01:58:16.528Z,2.73
2018-02-19T01:59:26.260Z,2.73
2018-02-19T02:00:35.762Z,2.77
2018-02-19T02:01:45.488Z,2.8
2018-02-19T02:02:55.471Z,2.81
2018-02-19T02:04:04.691Z,2.77
2018-02-19T02:05:14.147Z,2.83
2018-02-19T02:06:23.682Z,2.68
2018-02-19T02:07:33.371Z,2.76
2018-02-19T02:08:42.839Z,2.8
2018-02-19T02:09:52.624Z,2.81
2018-02-19T02:11:02.624Z,2.71
2018-02-19T02:12:12.649Z,2.73
2018-02-19T02:13:22.111Z,2.79
2018-02-19T02:14:31.832Z,2.79
2018-02-19T02:15:41.873Z,2.76
2018-02-19T02:16:51.592Z,2.74
2018-02-19T02:18:01.046Z,2.77
2018-02-19T02:19:10.506Z,2.77
2018-02-19T02:20:20.245Z,2.76
2018-02-19T02:21:29.433Z,2.83
2018-02-19T02:22:39.437Z,2.74
2018-02-19T02:23:49.158Z,2.79
2018-02-19T02:24:58.882Z,2.76
2018-02-19T02:26:08.069Z,2.74
2018-02-19T02:27:17.533Z,2.71
2018-02-19T02:28:27.556Z,2.69
2018-02-19T02:29:37.291Z,2.79
2018-02-19T02:30:46.746Z,2.79
2018-02-19T02:31:56.277Z,2.68
2018-02-19T02:33:05.484Z,2.8
2018-02-19T02:34:14.951Z,2.79
2018-02-19T02:35:24.681Z,2.8
2018-02-19T02:36:34.698Z,2.77
2018-02-19T02:37:44.701Z,2.81
2018-02-19T02:38:54.721Z,2.77
2018-02-19T02:40:04.458Z,2.8
2018-02-19T02:41:14.205Z,2.68
2018-02-19T02:42:23.682Z,2.83
2018-02-19T02:43:33.436Z,2.8
2018-02-19T02:44:42.976Z,2.8
2018-02-19T02:45:52.191Z,2.68
2018-02-19T02:47:02.018Z,2.81
2018-02-19T02:48:11.511Z,2.8
2018-02-19T02:49:21.255Z,2.8
2018-02-19T02:50:30.784Z,2.81
2018-02-19T02:51:40.275Z,2.81
2018-02-19T02:52:49.758Z,2.71
2018-02-19T02:53:59.513Z,2.8
2018-02-19T02:55:09.009Z,2.79
2018-02-19T02:56:18.799Z,2.71
2018-02-19T02:57:28.556Z,2.69
2018-02-19T02:58:37.771Z,2.68
2018-02-19T02:59:47.536Z,2.79
2018-02-19T03:00:56.736Z,2.79
2018-02-19T03:02:06.779Z,2.69
2018-02-19T03:03:16.547Z,2.68
2018-02-19T03:04:26.044Z,2.79
2018-02-19T03:05:36.082Z,2.69
2018-02-19T03:06:45.026Z,2.71
2018-02-19T03:07:54.566Z,2.8
2018-02-19T03:09:04.068Z,2.84
2018-02-19T03:10:13.633Z,2.69
2018-02-19T03:11:23.468Z,2.76
2018-02-19T03:12:33.209Z,2.69
2018-02-19T03:13:42.953Z,2.76
2018-02-19T03:14:52.435Z,2.69
2018-02-19T03:16:02.172Z,2.76
2018-02-19T03:17:12.174Z,2.79
2018-02-19T03:18:22.183Z,2.76
2018-02-19T03:19:31.655Z,2.79
2018-02-19T03:20:41.397Z,2.69
2018-02-19T03:21:50.879Z,2.79
2018-02-19T03:23:00.888Z,2.8
2018-02-19T03:24:10.364Z,2.8
2018-02-19T03:25:20.127Z,2.76
2018-02-19T03:26:29.881Z,2.8
2018-02-19T03:27:39.626Z,2.81
2018-02-19T03:28:49.649Z,2.83
2018-02-19T03:29:59.676Z,2.77
2018-02-19T03:31:08.892Z,2.87
2018-02-19T03:32:18.626Z,2.87
2018-02-19T03:33:28.098Z,2.89
2018-02-19T03:34:38.110Z,2.87
2018-02-19T03:35:47.587Z,2.87
2018-02-19T03:36:57.334Z,2.83
2018-02-19T03:38:06.812Z,2.83
2018-02-19T03:39:16.017Z,2.95
2018-02-19T03:40:25.764Z,2.95
2018-02-19T03:41:35.778Z,2.99
2018-02-19T03:42:45.520Z,2.86
2018-02-19T03:43:55.263Z,2.95
2018-02-19T03:45:04.487Z,2.97
2018-02-19T03:46:13.433Z,2.92
2018-02-19T03:47:23.184Z,2.98
2018-02-19T03:48:32.662Z,3.01
2018-02-19T03:49:42.410Z,2.98
2018-02-19T03:50:52.416Z,2.99
2018-02-19T03:52:01.364Z,2.89
2018-02-19T03:53:10.830Z,2.89
2018-02-19T03:54:20.836Z,3.01
2018-02-19T03:55:30.839Z,2.9
2018-02-19T03:56:40.335Z,2.98
2018-02-19T03:57:49.808Z,3.02
2018-02-19T03:58:59.824Z,3.04
2018-02-19T04:00:09.580Z,2.99
2018-02-19T04:01:19.328Z,2.97
2018-02-19T04:02:29.333Z,2.9
2018-02-19T04:03:39.078Z,2.98
2018-02-19T04:04:49.093Z,2.81
2018-02-19T04:05:59.106Z,2.87
2018-02-19T04:07:08.575Z,2.94
2018-02-19T04:08:18.596Z,2.94
2018-02-19T04:09:28.074Z,2.84
2018-02-19T04:10:38.083Z,2.9
2018-02-19T04:11:47.283Z,2.83
2018-02-19T04:12:57.028Z,2.8
2018-02-19T04:14:06.511Z,2.83
2018-02-19T04:15:16.542Z,2.84
2018-02-19T04:16:26.327Z,2.84
2018-02-19T04:17:36.070Z,2.8
2018-02-19T04:18:46.079Z,2.76
2018-02-19T04:19:55.581Z,2.71
2018-02-19T04:21:04.830Z,2.68
2018-02-19T04:22:14.577Z,2.79
2018-02-19T04:23:23.795Z,2.76
2018-02-19T04:24:33.532Z,2.77
2018-02-19T04:25:43.300Z,2.76
2018-02-19T04:26:52.795Z,2.71
2018-02-19T04:28:02.840Z,2.71
2018-02-19T04:29:12.608Z,2.65
2018-02-19T04:30:22.630Z,2.63
2018-02-19T04:31:32.643Z,2.62
2018-02-19T04:32:42.369Z,2.65
2018-02-19T04:33:51.565Z,2.58
2018-02-19T04:35:01.578Z,2.61
2018-02-19T04:36:11.335Z,2.62
2018-02-19T04:37:21.078Z,2.51
2018-02-19T04:38:30.820Z,2.5
2018-02-19T04:39:40.827Z,2.58
2018-02-19T04:40:50.582Z,2.5
2018-02-19T04:42:00.591Z,2.51
2018-02-19T04:43:10.334Z,2.62
2018-02-19T04:44:19.542Z,2.5
2018-02-19T04:45:28.751Z,2.63
2018-02-19T04:46:38.509Z,2.44
2018-02-19T04:47:48.508Z,2.56
2018-02-19T04:48:58.249Z,2.47
2018-02-19T04:50:07.716Z,2.51
2018-02-19T04:51:17.461Z,2.5
2018-02-19T04:52:27.211Z,2.43
2018-02-19T04:53:36.975Z,2.48
2018-02-19T04:54:46.738Z,2.51
2018-02-19T04:55:56.489Z,2.58
2018-02-19T04:57:06.486Z,2.56
2018-02-19T04:58:15.966Z,2.55
2018-02-19T04:59:25.978Z,2.51
2018-02-19T05:00:35.713Z,2.48
2018-02-19T05:01:45.713Z,2.51
2018-02-19T05:02:55.721Z,2.5
2018-02-19T05:04:05.196Z,2.58
2018-02-19T05:05:14.664Z,2.51
2018-02-19T05:06:24.691Z,2.55
2018-02-19T05:07:34.158Z,2.51
2018-02-19T05:08:43.884Z,2.58
2018-02-19T05:09:53.614Z,2.51
2018-02-19T05:11:03.666Z,2.51
2018-02-19T05:12:12.861Z,2.58
2018-02-19T05:13:22.331Z,2.56
2018-02-19T05:14:32.071Z,2.55
2018-02-19T05:15:41.269Z,2.55
2018-02-19T05:16:51.011Z,2.61
2018-02-19T05:18:00.757Z,2.59
2018-02-19T05:19:10.498Z,2.63
2018-02-19T05:20:20.253Z,2.66
2018-02-19T05:21:29.727Z,2.61
2018-02-19T05:22:39.481Z,2.61
2018-02-19T05:23:49.491Z,2.62
2018-02-19T05:24:58.694Z,2.65
2018-02-19T05:26:08.168Z,2.65
2018-02-19T05:27:17.916Z,2.73
2018-02-19T05:28:27.393Z,2.74
2018-02-19T05:29:36.867Z,2.76
2018-02-19T05:30:46.354Z,2.68
2018-02-19T05:31:55.892Z,2.71
2018-02-19T05:33:05.696Z,2.76
2018-02-19T05:34:15.715Z,2.8
2018-02-19T05:35:25.194Z,2.73
2018-02-19T05:36:35.221Z,2.8
2018-02-19T05:37:44.447Z,2.8
2018-02-19T05:38:54.189Z,2.79
2018-02-19T05:40:03.674Z,2.69
2018-02-19T05:41:13.420Z,2.8
2018-02-19T05:42:22.892Z,2.74
2018-02-19T05:43:31.822Z,2.77
2018-02-19T05:44:41.657Z,2.81
2018-02-19T05:45:50.865Z,2.79
2018-02-19T05:47:00.615Z,2.71
2018-02-19T05:48:10.358Z,2.8
2018-02-19T05:49:20.101Z,2.73
2018-02-19T05:50:29.583Z,2.77
2018-02-19T05:51:39.326Z,2.77
2018-02-19T05:52:49.116Z,2.8
2018-02-19T05:53:58.870Z,2.74
2018-02-19T05:55:08.078Z,2.8
2018-02-19T05:56:18.087Z,2.86
2018-02-19T05:57:28.101Z,2.77
2018-02-19T05:58:37.574Z,2.76
2018-02-19T05:59:47.602Z,2.8
2018-02-19T06:00:57.352Z,2.83
2018-02-19T06:02:07.381Z,2.86
2018-02-19T06:03:16.862Z,2.84
2018-02-19T06:04:26.896Z,2.8
2018-02-19T06:05:36.913Z,2.77
2018-02-19T06:06:46.922Z,2.74
2018-02-19T06:07:56.669Z,2.77
2018-02-19T06:09:06.682Z,2.76
2018-02-19T06:10:16.688Z,2.81
2018-02-19T06:11:25.899Z,2.81
2018-02-19T06:12:35.690Z,2.81
2018-02-19T06:13:45.458Z,2.83
2018-02-19T06:14:55.479Z,2.8
2018-02-19T06:16:05.497Z,2.87
2018-02-19T06:17:15.248Z,2.81
2018-02-19T06:18:24.186Z,2.84
2018-02-19T06:19:33.650Z,2.8
2018-02-19T06:20:43.395Z,2.81
2018-02-19T06:21:52.862Z,2.8
2018-02-19T06:23:02.358Z,2.86
2018-02-19T06:24:12.389Z,2.86
2018-02-19T06:25:21.866Z,2.92
2018-02-19T06:26:31.886Z,2.87
2018-02-19T06:27:41.884Z,2.92
2018-02-19T06:28:51.902Z,2.92
2018-02-19T06:30:01.392Z,2.89
2018-02-19T06:31:10.855Z,2.94
2018-02-19T06:32:20.064Z,2.86
2018-02-19T06:33:29.266Z,2.97
2018-02-19T06:34:39.271Z,2.83
2018-02-19T06:35:49.283Z,2.95
2018-02-19T06:36:59.418Z,2.87
2018-02-19T06:38:09.437Z,2.9
2018-02-19T06:39:19.459Z,2.84
2018-02-19T06:40:28.706Z,2.95
2018-02-19T06:41:38.221Z,2.97
2018-02-19T06:42:47.949Z,2.99
2018-02-19T06:43:57.947Z,2.98
2018-02-19T06:45:07.686Z,2.9
2018-02-19T06:46:17.169Z,2.86
2018-02-19T06:47:27.188Z,2.9
2018-02-19T06:48:36.934Z,2.94
2018-02-19T06:49:46.134Z,2.94
2018-02-19T06:50:55.869Z,2.95
2018-02-19T06:52:05.078Z,2.84
2018-02-19T06:53:14.812Z,3.01
2018-02-19T06:54:24.974Z,2.95
2018-02-19T06:55:34.714Z,2.95
2018-02-19T06:56:44.178Z,2.89
2018-02-19T06:57:54.183Z,2.99
2018-02-19T06:59:03.660Z,2.89
2018-02-19T07:00:13.792Z,2.95
2018-02-19T07:01:22.979Z,3.01
2018-02-19T07:02:32.977Z,2.87
2018-02-19T07:03:42.458Z,3.07
2018-02-19T07:04:51.738Z,3.01
2018-02-19T07:06:01.477Z,2.99
2018-02-19T07:07:11.560Z,2.99
2018-02-19T07:08:21.557Z,2.98
2018-02-19T07:09:31.294Z,3.07
2018-02-19T07:10:41.310Z,3.07
2018-02-19T07:11:51.074Z,3.12
2018-02-19T07:13:00.544Z,3.19
2018-02-19T07:14:10.290Z,3.2
2018-02-19T07:15:20.146Z,3.2
2018-02-19T07:16:29.923Z,3.23
2018-02-19T07:17:39.387Z,3.31
2018-02-19T07:18:49.133Z,3.3
2018-02-19T07:19:58.932Z,3.3
2018-02-19T07:21:09.187Z,3.33
2018-02-19T07:22:18.944Z,3.37
2018-02-19T07:23:28.144Z,3.41
2018-02-19T07:24:37.890Z,3.37
2018-02-19T07:25:47.632Z,3.37
2018-02-19T07:26:56.832Z,3.37
2018-02-19T07:28:06.579Z,3.44
2018-02-19T07:29:16.175Z,3.44
2018-02-19T07:30:25.942Z,3.49
2018-02-19T07:31:35.423Z,3.46
2018-02-19T07:32:45.435Z,3.44
2018-02-19T07:33:55.498Z,3.45
2018-02-19T07:35:05.372Z,3.44
2018-02-19T07:36:14.840Z,3.45
2018-02-19T07:37:24.844Z,3.46
2018-02-19T07:38:34.589Z,3.57
2018-02-19T07:39:44.324Z,3.45
2018-02-19T07:40:54.069Z,3.49
2018-02-19T07:42:03.807Z,3.49
2018-02-19T07:43:13.014Z,3.57
2018-02-19T07:44:22.607Z,3.56
2018-02-19T07:45:31.827Z,3.59
2018-02-19T07:46:41.022Z,3.5
2018-02-19T07:47:50.760Z,3.49
2018-02-19T07:49:00.523Z,3.59
2018-02-19T07:50:10.270Z,3.59
2018-02-19T07:51:19.822Z,3.56
2018-02-19T07:52:29.608Z,3.53
2018-02-19T07:53:39.080Z,3.59
2018-02-19T07:54:48.882Z,3.72
2018-02-19T07:55:58.632Z,3.72
2018-02-19T07:57:08.108Z,3.82
2018-02-19T07:58:17.838Z,3.78
2018-02-19T07:59:27.845Z,3.88
2018-02-19T08:00:37.043Z,3.9
2018-02-19T08:01:47.078Z,4.08
2018-02-19T08:02:56.566Z,4
2018-02-19T08:04:06.044Z,3.96
2018-02-19T08:05:16.045Z,4.06
2018-02-19T08:06:25.793Z,4.1
2018-02-19T08:07:35.808Z,4.08
2018-02-19T08:08:45.016Z,4.29
2018-02-19T08:09:54.756Z,4.29
2018-02-19T08:11:04.874Z,4.26
2018-02-19T08:12:14.358Z,4.38
2018-02-19T08:13:24.497Z,4.34
2018-02-19T08:14:33.956Z,4.31
2018-02-19T08:15:43.431Z,4.39
2018-02-19T08:16:53.202Z,4.35
2018-02-19T08:18:03.455Z,4.46
2018-02-19T08:19:13.568Z,4.49
2018-02-19T08:20:23.306Z,4.49
2018-02-19T08:21:32.248Z,4.62
2018-02-19T08:22:41.994Z,4.53
2018-02-19T08:23:51.743Z,4.54
2018-02-19T08:25:01.698Z,4.56
2018-02-19T08:26:11.709Z,4.61
2018-02-19T08:27:21.508Z,4.67
2018-02-19T08:28:31.518Z,4.69
2018-02-19T08:29:41.026Z,4.68
2018-02-19T08:30:50.855Z,4.72
2018-02-19T08:32:00.655Z,4.77
2018-02-19T08:33:10.126Z,4.79
2018-02-19T08:34:20.137Z,4.88
2018-02-19T08:35:29.877Z,4.99
2018-02-19T08:36:39.354Z,4.93
2018-02-19T08:37:48.567Z,5.01
2018-02-19T08:38:58.120Z,4.97
2018-02-19T08:40:07.336Z,5.09
2018-02-19T08:41:17.106Z,5.08
2018-02-19T08:42:26.913Z,5.11
2018-02-19T08:43:36.742Z,5.02
2018-02-19T08:44:46.557Z,5.15
2018-02-19T08:45:56.565Z,5.12
2018-02-19T08:47:06.043Z,5.2
2018-02-19T08:48:15.524Z,5.23
2018-02-19T08:49:25.280Z,5.27
2018-02-19T08:50:35.310Z,5.26
2018-02-19T08:51:45.329Z,5.2
2018-02-19T08:52:55.333Z,5.27
2018-02-19T08:54:04.831Z,5.41
2018-02-19T08:55:14.294Z,5.45
2018-02-19T08:56:24.047Z,5.38
2018-02-19T08:57:33.792Z,5.32
2018-02-19T08:58:43.544Z,5.35
2018-02-19T08:59:53.649Z,5.33
2018-02-19T09:01:03.390Z,5.44
2018-02-19T09:02:12.860Z,5.42
2018-02-19T09:03:22.330Z,5.37
2018-02-19T09:04:31.801Z,5.48
2018-02-19T09:05:41.300Z,5.49
2018-02-19T09:06:51.092Z,5.56
2018-02-19T09:08:00.578Z,5.63
2018-02-19T09:09:10.325Z,5.7
2018-02-19T09:10:20.346Z,5.67
2018-02-19T09:11:30.107Z,5.83
2018-02-19T09:12:39.682Z,5.75
2018-02-19T09:13:49.544Z,5.74
2018-02-19T09:14:59.290Z,5.81
2018-02-19T09:16:08.766Z,5.77
2018-02-19T09:17:17.986Z,5.85
2018-02-19T09:18:28.011Z,5.92
2018-02-19T09:19:38.020Z,5.92
2018-02-19T09:20:47.503Z,5.99
2018-02-19T09:21:57.260Z,6.08
2018-02-19T09:23:07.279Z,6.06
2018-02-19T09:24:16.758Z,6.19
2018-02-19T09:25:25.976Z,6.14
2018-02-19T09:26:35.772Z,6.32
2018-02-19T09:27:45.273Z,6.3
2018-02-19T09:28:55.045Z,6.42
2018-02-19T09:30:05.066Z,6.46
2018-02-19T09:31:14.548Z,6.48
2018-02-19T09:32:24.301Z,6.57
2018-02-19T09:33:33.776Z,6.61
2018-02-19T09:34:43.785Z,6.63
2018-02-19T09:35:53.786Z,6.76
2018-02-19T09:37:03.536Z,6.86
2018-02-19T09:38:13.387Z,6.91
2018-02-19T09:39:23.418Z,6.89
2018-02-19T09:40:32.887Z,7.04
2018-02-19T09:41:43.099Z,7.18
2018-02-19T09:42:52.609Z,7.07
2018-02-19T09:44:02.371Z,7.15
2018-02-19T09:45:12.393Z,7.15
2018-02-19T09:46:21.896Z,7.21
2018-02-19T09:47:31.929Z,7.23
2018-02-19T09:48:41.490Z,7.29
2018-02-19T09:49:51.276Z,7.36
2018-02-19T09:51:00.857Z,7.41
2018-02-19T09:52:10.250Z,7.44
2018-02-19T09:53:20.063Z,7.54
2018-02-19T09:54:29.662Z,7.45
2018-02-19T09:55:38.983Z,7.3
2018-02-19T09:56:48.746Z,7.19
2018-02-19T09:57:58.523Z,7.18
2018-02-19T09:59:08.001Z,7.15
2018-02-19T10:00:18.050Z,7.05
2018-02-19T10:01:28.067Z,7.07
2018-02-19T10:02:37.846Z,7.14
2018-02-19T10:03:47.612Z,7.29
2018-02-19T10:04:56.560Z,7.19
2018-02-19T10:06:06.347Z,7.27
2018-02-19T10:07:16.444Z,7.33
2018-02-19T10:08:25.916Z,7.36
2018-02-19T10:09:35.952Z,7.42
2018-02-19T10:10:45.433Z,7.47
2018-02-19T10:11:54.916Z,7.36
2018-02-19T10:13:04.127Z,7.41
2018-02-19T10:14:14.147Z,7.5
2018-02-19T10:15:23.671Z,7.62
2018-02-19T10:16:33.803Z,7.62
2018-02-19T10:17:43.850Z,7.6
2018-02-19T10:18:53.877Z,7.57
2018-02-19T10:20:03.089Z,7.63
2018-02-19T10:21:12.963Z,7.6
2018-02-19T10:22:22.546Z,7.67
2018-02-19T10:23:32.330Z,7.69
2018-02-19T10:24:42.091Z,7.71
2018-02-19T10:25:51.576Z,7.89
2018-02-19T10:27:01.619Z,7.88
2018-02-19T10:28:10.866Z,7.99
2018-02-19T10:29:20.902Z,8.06
2018-02-19T10:30:30.129Z,8.04
2018-02-19T10:31:40.154Z,8.1
2018-02-19T10:32:50.349Z,8.1
2018-02-19T10:34:00.416Z,8.13
2018-02-19T10:35:10.573Z,8.2
2018-02-19T10:36:20.563Z,8.29
2018-02-19T10:37:30.595Z,8.36
2018-02-19T10:38:40.565Z,8.36
2018-02-19T10:39:50.054Z,8.42
2018-02-19T10:41:00.084Z,8.37
2018-02-19T10:42:09.342Z,8.39
2018-02-19T10:43:19.351Z,8.46
2018-02-19T10:44:28.921Z,8.54
2018-02-19T10:45:38.672Z,8.63
2018-02-19T10:46:48.155Z,8.67
2018-02-19T10:47:57.920Z,8.67
2018-02-19T10:49:06.876Z,8.71
2018-02-19T10:50:16.927Z,8.78
2018-02-19T10:51:26.690Z,8.89
2018-02-19T10:52:35.680Z,8.91
2018-02-19T10:53:45.718Z,8.94
2018-02-19T10:54:54.936Z,8.89
2018-02-19T10:56:04.960Z,9.04
2018-02-19T10:57:14.479Z,9.06
2018-02-19T10:58:24.095Z,9.2
2018-02-19T10:59:34.253Z,9.22
2018-02-19T11:00:43.890Z,9.23
2018-02-19T11:01:53.297Z,9.1
2018-02-19T11:03:03.534Z,8.98
2018-02-19T11:04:13.516Z,9.03
2018-02-19T11:05:23.549Z,9.04
2018-02-19T11:06:33.558Z,9.13
2018-02-19T11:07:43.502Z,9.17
2018-02-19T11:08:53.740Z,9.22
2018-02-19T11:10:03.762Z,9.31
2018-02-19T11:11:14.089Z,9.31
2018-02-19T11:12:23.813Z,9.35
2018-02-19T11:13:33.830Z,9.44
2018-02-19T11:14:44.097Z,9.49
2018-02-19T11:15:54.053Z,9.48
2018-02-19T11:17:03.747Z,9.48
2018-02-19T11:18:13.698Z,9.41
2018-02-19T11:19:23.435Z,9.2
2018-02-19T11:20:33.530Z,8.89
2018-02-19T11:21:43.468Z,8.63
2018-02-19T11:22:53.670Z,8.43
2018-02-19T11:24:03.662Z,8.29
2018-02-19T11:25:13.667Z,8.34
2018-02-19T11:26:23.380Z,8.37
2018-02-19T11:27:33.347Z,8.42
2018-02-19T11:28:43.591Z,8.47
2018-02-19T11:29:53.610Z,8.52
2018-02-19T11:31:03.540Z,8.6
2018-02-19T11:32:13.240Z,8.7
2018-02-19T11:33:22.935Z,8.68
2018-02-19T11:34:32.063Z,8.7
2018-02-19T11:35:42.040Z,8.79
2018-02-19T11:36:52.465Z,8.93
2018-02-19T11:38:02.432Z,9.1
2018-02-19T11:39:12.202Z,8.88
2018-02-19T11:40:22.487Z,8.91
2018-02-19T11:41:32.723Z,8.79
2018-02-19T11:42:42.919Z,8.76
2018-02-19T11:43:52.726Z,8.83
2018-02-19T11:45:02.757Z,8.71
2018-02-19T11:46:12.775Z,8.68
2018-02-19T11:47:22.865Z,8.78
2018-02-19T11:48:32.660Z,8.75
2018-02-19T11:49:42.139Z,8.7
2018-02-19T11:50:52.047Z,8.67
2018-02-19T11:52:01.795Z,8.7
2018-02-19T11:53:12.166Z,8.64
2018-02-19T11:54:22.174Z,8.54
2018-02-19T11:55:31.116Z,8.45
2018-02-19T11:56:41.332Z,8.57
2018-02-19T11:57:50.893Z,8.7
2018-02-19T11:59:00.194Z,8.79
2018-02-19T12:00:09.955Z,8.93
2018-02-19T12:01:19.700Z,9.03
2018-02-19T12:02:29.447Z,9
2018-02-19T12:03:38.972Z,9.1
2018-02-19T12:04:49.000Z,9.19
2018-02-19T12:05:58.792Z,9.23
2018-02-19T12:07:08.086Z,9.17
2018-02-19T12:08:17.914Z,9.35
2018-02-19T12:09:28.029Z,9.34
2018-02-19T12:10:37.802Z,9.19
2018-02-19T12:11:47.283Z,9.1
2018-02-19T12:12:57.071Z,9.1
2018-02-19T12:14:06.828Z,9
2018-02-19T12:15:17.972Z,9.06
2018-02-19T12:16:27.994Z,9.08
2018-02-19T12:17:38.007Z,9.16
2018-02-19T12:18:47.837Z,9.12
2018-02-19T12:19:57.655Z,9.12
2018-02-19T12:21:07.141Z,8.98
2018-02-19T12:22:17.091Z,8.98
2018-02-19T12:23:26.855Z,8.89
2018-02-19T12:24:37.030Z,8.91
2018-02-19T12:25:47.043Z,9.04
2018-02-19T12:26:58.027Z,9.06
2018-02-19T12:28:07.492Z,9.17
2018-02-19T12:29:17.383Z,9.3
2018-02-19T12:30:27.678Z,9.23
2018-02-19T12:31:37.366Z,9.35
2018-02-19T12:32:47.087Z,9.32
2018-02-19T12:33:56.996Z,9.26
2018-02-19T12:35:08.623Z,9.23
2018-02-19T12:36:19.025Z,9.17
2018-02-19T12:37:29.845Z,9.13
2018-02-19T12:38:40.049Z,8.94
2018-02-19T12:39:49.606Z,8.64
2018-02-19T12:41:00.087Z,8.39
2018-02-19T12:42:10.988Z,8.36
2018-02-19T12:43:20.833Z,8.32
2018-02-19T12:44:31.024Z,8.42
2018-02-19T12:45:41.072Z,8.61
2018-02-19T12:46:50.815Z,8.73
2018-02-19T12:48:00.296Z,8.88
2018-02-19T12:49:09.882Z,9.1
2018-02-19T12:50:19.906Z,9.15
2018-02-19T12:51:29.775Z,9.24
2018-02-19T12:52:39.630Z,9.58
2018-02-19T12:53:49.403Z,9.73
2018-02-19T12:54:59.450Z,9.77
2018-02-19T12:56:09.204Z,9.83
2018-02-19T12:57:19.220Z,9.85
2018-02-19T12:58:28.762Z,9.91
2018-02-19T12:59:39.473Z,9.95
2018-02-19T13:00:49.213Z,9.91
2018-02-19T13:01:58.899Z,10.02
2018-02-19T13:03:08.899Z,9.95
2018-02-19T13:04:18.181Z,10.07
2018-02-19T13:05:27.946Z,10.26
2018-02-19T13:06:38.252Z,10.31
2018-02-19T13:07:48.018Z,10.43
2018-02-19T13:08:58.455Z,10.51
2018-02-19T13:10:07.803Z,10.47
2018-02-19T13:11:17.996Z,10.54
2018-02-19T13:12:27.996Z,10.46
2018-02-19T13:13:37.294Z,10.42
2018-02-19T13:14:47.058Z,10.51
2018-02-19T13:15:56.703Z,10.36
2018-02-19T13:17:06.218Z,10.36
2018-02-19T13:18:16.026Z,10.18
2018-02-19T13:19:26.009Z,10.04
2018-02-19T13:20:35.810Z,9.99
2018-02-19T13:21:45.208Z,9.99
2018-02-19T13:22:54.703Z,9.93
2018-02-19T13:24:04.804Z,10.17
2018-02-19T13:25:14.919Z,10.26
2018-02-19T13:26:24.628Z,10.46
2018-02-19T13:27:34.544Z,10.46
2018-02-19T13:28:44.337Z,10.46
2018-02-19T13:29:53.816Z,10.43
2018-02-19T13:31:03.865Z,10.47
2018-02-19T13:32:13.651Z,10.51
2018-02-19T13:33:23.434Z,10.44
2018-02-19T13:34:33.320Z,10.49
2018-02-19T13:35:43.360Z,10.62
2018-02-19T13:36:52.596Z,10.57
2018-02-19T13:38:02.394Z,10.65
2018-02-19T13:39:12.202Z,10.7
2018-02-19T13:40:22.022Z,10.75
2018-02-19T13:41:32.064Z,10.87
2018-02-19T13:42:41.298Z,10.9
2018-02-19T13:43:51.064Z,10.94
2018-02-19T13:45:01.761Z,10.95
2018-02-19T13:46:11.562Z,11.06
2018-02-19T13:47:21.045Z,11.26
2018-02-19T13:48:30.949Z,11.3
2018-02-19T13:49:40.733Z,11.44
2018-02-19T13:50:50.495Z,11.48
2018-02-19T13:52:00.524Z,11.53
2018-02-19T13:53:10.035Z,11.59
2018-02-19T13:54:19.813Z,11.62
2018-02-19T13:55:29.117Z,11.64
2018-02-19T13:56:39.142Z,11.6
2018-02-19T13:57:49.189Z,11.6
2018-02-19T13:58:58.952Z,11.51
2018-02-19T14:00:08.982Z,11.49
2018-02-19T14:01:18.513Z,11.42
2018-02-19T14:02:28.332Z,11.24
2018-02-19T14:03:38.367Z,11.26
2018-02-19T14:04:48.412Z,11.3
2018-02-19T14:05:58.433Z,11.11
2018-02-19T14:07:08.488Z,11.09
2018-02-19T14:08:18.021Z,11.08
2018-02-19T14:09:28.084Z,11.05
2018-02-19T14:10:37.850Z,11.13
2018-02-19T14:11:47.332Z,11.12
2018-02-19T14:12:56.557Z,11.08
2018-02-19T14:14:06.410Z,11.08
2018-02-19T14:15:15.642Z,10.88
2018-02-19T14:16:25.393Z,10.78
2018-02-19T14:17:34.871Z,10.7
2018-02-19T14:18:44.390Z,10.78
2018-02-19T14:19:54.142Z,10.81
2018-02-19T14:21:03.892Z,10.88
2018-02-19T14:22:13.921Z,10.87
2018-02-19T14:23:23.418Z,10.83
2018-02-19T14:24:33.345Z,10.84
2018-02-19T14:25:43.191Z,10.86
2018-02-19T14:26:52.980Z,10.87
2018-02-19T14:28:03.056Z,10.8
2018-02-19T14:29:12.857Z,10.75
2018-02-19T14:30:22.885Z,10.87
2018-02-19T14:31:32.641Z,10.87
2018-02-19T14:32:42.747Z,10.84
2018-02-19T14:33:52.597Z,10.6
2018-02-19T14:35:02.086Z,10.36
2018-02-19T14:36:11.842Z,10.22
2018-02-19T14:37:21.592Z,10.18
2018-02-19T14:38:31.395Z,10.13
2018-02-19T14:39:40.884Z,10.18
2018-02-19T14:40:50.678Z,10.32
2018-02-19T14:42:00.560Z,10.28
2018-02-19T14:43:10.104Z,10.39
2018-02-19T14:44:20.152Z,10.17
2018-02-19T14:45:29.910Z,9.93
2018-02-19T14:46:39.650Z,9.78
2018-02-19T14:47:49.402Z,9.65
2018-02-19T14:48:59.104Z,9.42
2018-02-19T14:50:09.084Z,9.3
2018-02-19T14:51:18.979Z,9.34
2018-02-19T14:52:29.144Z,9.27
2018-02-19T14:53:39.182Z,9.35
2018-02-19T14:54:49.232Z,9.44
2018-02-19T14:55:58.781Z,9.5
2018-02-19T14:57:08.477Z,9.49
2018-02-19T14:58:18.338Z,9.59
2018-02-19T14:59:28.263Z,9.71
2018-02-19T15:00:37.918Z,9.73
2018-02-19T15:01:47.691Z,9.65
2018-02-19T15:02:57.753Z,9.71
2018-02-19T15:04:08.368Z,9.58
2018-02-19T15:05:18.418Z,9.3
2018-02-19T15:06:28.051Z,9.04
2018-02-19T15:07:38.133Z,8.98
2018-02-19T15:08:47.924Z,8.82
2018-02-19T15:09:57.472Z,8.71
2018-02-19T15:11:07.403Z,8.76
2018-02-19T15:12:17.010Z,8.73
2018-02-19T15:13:26.760Z,8.86
2018-02-19T15:14:35.704Z,8.89
2018-02-19T15:15:45.456Z,9.08
2018-02-19T15:16:54.945Z,9.2
2018-02-19T15:18:04.999Z,9.16
2018-02-19T15:19:15.089Z,9.27
2018-02-19T15:20:24.874Z,9.23
2018-02-19T15:21:34.367Z,9.27
2018-02-19T15:22:44.177Z,9.27
2018-02-19T15:23:53.719Z,9.16
2018-02-19T15:25:02.948Z,9.3
2018-02-19T15:26:12.466Z,9.31
2018-02-19T15:27:21.684Z,9.31
2018-02-19T15:28:31.447Z,9.32
2018-02-19T15:29:41.535Z,9.22